createdAt,value
2024-01-09T00:02:21.126Z,24.80
2024-01-09T00:04:48.223Z,20.63
2024-01-09T00:07:15.001Z,21.02
2024-01-09T00:09:41.888Z,17.55
2024-01-09T00:12:09.393Z,23.40
2024-01-09T00:14:39.700Z,17.50
2024-01-09T00:17:06.950Z,15.98
2024-01-09T00:19:35.649Z,17.50
2024-01-09T00:22:03.914Z,16.33
2024-01-09T00:24:30.779Z,16.33
2024-01-09T00:26:57.705Z,19.63
2024-01-09T00:29:24.685Z,19.83
2024-01-09T00:31:51.571Z,15.77
2024-01-09T00:34:18.534Z,16.52
2024-01-09T00:36:45.912Z,19.38
2024-01-09T00:39:12.918Z,16.92
2024-01-09T00:41:39.791Z,18.48
2024-01-09T00:44:07.231Z,15.32
2024-01-09T00:46:34.530Z,19.35
2024-01-09T00:49:01.891Z,21.35
2024-01-09T00:51:28.833Z,18.88
2024-01-09T00:53:58.403Z,21.15
2024-01-09T00:56:25.208Z,16.42
2024-01-09T00:58:51.955Z,19.10
2024-01-09T01:01:18.912Z,16.05
2024-01-09T01:03:46.136Z,18.70
2024-01-09T01:06:13.187Z,18.83
2024-01-09T01:08:40.115Z,17.23
2024-01-09T01:11:07.492Z,17.33
2024-01-09T01:13:34.416Z,19.50
2024-01-09T01:16:01.695Z,20.33
2024-01-09T01:18:28.573Z,19.10
2024-01-09T01:21:00.767Z,16.40
2024-01-09T01:23:27.647Z,17.83
2024-01-09T01:25:54.750Z,16.73
2024-01-09T01:28:21.721Z,21.27
2024-01-09T01:30:48.589Z,14.60
2024-01-09T01:33:15.560Z,12.88
2024-01-09T01:35:42.813Z,17.05
2024-01-09T01:38:09.762Z,16.08
2024-01-09T01:40:36.565Z,14.57
2024-01-09T01:43:03.434Z,16.42
2024-01-09T01:45:30.926Z,13.38
2024-01-09T01:47:58.212Z,18.08
2024-01-09T01:50:25.219Z,19.05
2024-01-09T01:52:52.107Z,20.50
2024-01-09T01:55:20.602Z,16.60
2024-01-09T01:57:48.203Z,13.40
2024-01-09T02:00:17.234Z,17.30
2024-01-09T02:02:44.073Z,17.65
2024-01-09T02:05:10.965Z,16.40
2024-01-09T02:07:37.833Z,19.52
2024-01-09T02:10:05.001Z,15.48
2024-01-09T02:12:31.846Z,27.75
2024-01-09T02:14:59.030Z,14.93
2024-01-09T02:17:28.536Z,20.38
2024-01-09T02:19:57.087Z,18.83
2024-01-09T02:22:24.021Z,15.05
2024-01-09T02:24:50.881Z,17.02
2024-01-09T02:27:38.251Z,17.73
2024-01-09T02:30:06.179Z,16.63
2024-01-09T02:32:34.138Z,19.13
2024-01-09T02:35:01.070Z,17.88
2024-01-09T02:37:27.851Z,16.23
2024-01-09T02:39:58.506Z,15.05
2024-01-09T02:42:25.317Z,16.88
2024-01-09T02:44:58.304Z,19.75
2024-01-09T02:47:25.608Z,17.73
2024-01-09T02:49:52.477Z,15.85
2024-01-09T02:52:27.610Z,17.52
2024-01-09T02:54:54.479Z,19.00
2024-01-09T02:57:21.621Z,17.65
2024-01-09T02:59:48.515Z,16.33
2024-01-09T03:02:15.480Z,14.88
2024-01-09T03:04:42.581Z,17.02
2024-01-09T03:07:09.574Z,20.80
2024-01-09T03:09:37.211Z,15.13
2024-01-09T03:12:08.370Z,17.10
2024-01-09T03:14:38.540Z,19.23
2024-01-09T03:17:06.263Z,20.55
2024-01-09T03:19:33.340Z,18.08
2024-01-09T03:22:00.208Z,16.35
2024-01-09T03:24:27.001Z,20.15
2024-01-09T03:26:54.494Z,17.48
2024-01-09T03:29:21.333Z,18.20
2024-01-09T03:31:48.135Z,16.77
2024-01-09T03:34:14.992Z,19.90
2024-01-09T03:36:44.984Z,19.23
2024-01-09T03:39:14.089Z,17.15
2024-01-09T03:41:43.760Z,18.15
2024-01-09T03:44:11.047Z,22.42
2024-01-09T03:46:38.977Z,19.75
2024-01-09T03:49:05.853Z,18.02
2024-01-09T03:51:33.022Z,17.48
2024-01-09T03:53:59.798Z,20.05
2024-01-09T03:56:26.704Z,20.92
2024-01-09T03:58:53.887Z,19.67
2024-01-09T04:01:20.836Z,22.77
2024-01-09T04:03:47.629Z,17.85
2024-01-09T04:06:15.164Z,20.58
2024-01-09T04:08:42.106Z,15.93
2024-01-09T04:11:09.060Z,21.25
2024-01-09T04:13:35.947Z,18.15
2024-01-09T04:16:02.958Z,20.27
2024-01-09T04:18:30.184Z,22.23
2024-01-09T04:21:00.204Z,24.58
2024-01-09T04:23:27.084Z,21.98
2024-01-09T04:25:53.900Z,21.83
2024-01-09T04:28:20.709Z,20.65
2024-01-09T04:30:48.088Z,17.25
2024-01-09T04:33:15.108Z,19.50
2024-01-09T04:35:42.163Z,19.55
2024-01-09T04:38:09.031Z,19.77
2024-01-09T04:40:35.953Z,18.00
2024-01-09T04:43:02.811Z,19.58
2024-01-09T04:45:29.654Z,21.20
2024-01-09T04:47:56.650Z,23.35
2024-01-09T04:50:23.595Z,20.33
2024-01-09T04:52:50.996Z,21.65
2024-01-09T04:55:17.771Z,21.70
2024-01-09T04:57:44.898Z,20.00
2024-01-09T05:00:12.349Z,22.52
2024-01-09T05:02:39.486Z,20.48
2024-01-09T05:05:06.622Z,21.67
2024-01-09T05:07:33.571Z,19.75
2024-01-09T05:10:00.382Z,19.10
2024-01-09T05:12:27.177Z,17.98
2024-01-09T05:14:54.057Z,22.40
2024-01-09T05:17:21.304Z,20.45
2024-01-09T05:19:48.741Z,21.65
2024-01-09T05:22:16.113Z,23.15
2024-01-09T05:24:43.204Z,23.67
2024-01-09T05:27:09.976Z,26.08
2024-01-09T05:29:39.837Z,19.63
2024-01-09T05:32:07.714Z,24.05
2024-01-09T05:34:34.501Z,24.42
2024-01-09T05:37:01.277Z,18.73
2024-01-09T05:39:29.779Z,23.83
2024-01-09T05:41:57.340Z,22.42
2024-01-09T05:44:24.200Z,23.30
2024-01-09T05:46:51.536Z,32.08
2024-01-09T05:49:18.525Z,18.90
2024-01-09T05:51:45.451Z,26.35
2024-01-09T05:54:13.770Z,20.80
2024-01-09T05:56:42.758Z,22.67
2024-01-09T05:59:09.816Z,21.90
2024-01-09T06:01:36.731Z,26.23
2024-01-09T06:04:03.783Z,24.15
2024-01-09T06:06:31.139Z,18.75
2024-01-09T06:08:58.472Z,24.48
2024-01-09T06:11:26.069Z,26.52
2024-01-09T06:13:55.224Z,23.05
2024-01-09T06:16:22.088Z,25.90
2024-01-09T06:18:48.968Z,26.88
2024-01-09T06:21:17.608Z,23.42
2024-01-09T06:23:45.195Z,20.30
2024-01-09T06:26:14.545Z,24.30
2024-01-09T06:28:43.865Z,21.30
2024-01-09T06:31:10.681Z,26.30
2024-01-09T06:33:37.619Z,22.55
2024-01-09T06:36:05.209Z,20.23
2024-01-09T06:38:32.060Z,26.02
2024-01-09T06:40:59.874Z,23.42
2024-01-09T06:43:26.647Z,25.98
2024-01-09T06:45:53.504Z,27.85
2024-01-09T06:48:20.640Z,23.48
2024-01-09T06:50:48.066Z,27.08
2024-01-09T06:53:14.911Z,27.33
2024-01-09T06:55:42.580Z,24.13
2024-01-09T06:58:10.088Z,26.05
2024-01-09T07:00:39.752Z,24.95
2024-01-09T07:03:07.085Z,28.27
2024-01-09T07:05:37.535Z,29.65
2024-01-09T07:08:05.389Z,26.65
2024-01-09T07:10:32.216Z,27.50
2024-01-09T07:15:46.709Z,31.73
2024-01-09T07:18:17.005Z,24.63
2024-01-09T07:23:45.365Z,26.95
2024-01-09T07:26:12.837Z,32.88
2024-01-09T07:28:43.460Z,26.23
2024-01-09T07:31:15.457Z,27.67
2024-01-09T07:33:53.048Z,31.00
2024-01-09T07:36:24.365Z,30.65
2024-01-09T07:39:22.339Z,24.33
2024-01-09T07:41:50.997Z,31.35
2024-01-09T07:44:19.430Z,26.35
2024-01-09T07:46:48.242Z,26.98
2024-01-09T07:49:23.048Z,26.90
2024-01-09T07:51:58.321Z,35.38
2024-01-09T07:54:25.129Z,28.10
2024-01-09T07:56:52.201Z,28.02
2024-01-09T07:59:19.082Z,29.67
2024-01-09T08:01:55.940Z,26.80
2024-01-09T08:04:25.948Z,31.58
2024-01-09T08:06:53.668Z,27.80
2024-01-09T08:09:20.490Z,30.67
2024-01-09T08:11:48.530Z,34.05
2024-01-09T08:14:16.009Z,27.35
2024-01-09T08:16:43.005Z,29.70
2024-01-09T08:19:10.256Z,32.05
2024-01-09T08:21:39.884Z,29.42
2024-01-09T08:24:08.669Z,31.00
2024-01-09T08:26:36.062Z,33.80
2024-01-09T08:29:04.106Z,34.45
2024-01-09T08:31:31.056Z,33.35
2024-01-09T08:33:58.661Z,32.05
2024-01-09T08:36:25.739Z,29.50
2024-01-09T08:38:52.591Z,30.40
2024-01-09T08:41:19.602Z,32.60
2024-01-09T08:43:46.373Z,37.47
2024-01-09T08:46:13.613Z,69.50
2024-01-09T08:48:40.545Z,31.83
2024-01-09T08:53:58.609Z,36.05
2024-01-09T08:56:25.613Z,35.95
2024-01-09T08:58:55.388Z,31.67
2024-01-09T09:01:22.616Z,32.72
2024-01-09T09:03:49.958Z,38.10
2024-01-09T09:06:18.528Z,29.95
2024-01-09T09:08:48.627Z,33.00
2024-01-09T09:11:18.301Z,32.28
2024-01-09T09:13:45.563Z,34.83
2024-01-09T09:16:12.624Z,35.80
2024-01-09T09:18:40.892Z,34.40
2024-01-09T09:21:08.944Z,33.83
2024-01-09T09:23:35.950Z,40.50
2024-01-09T09:26:04.660Z,35.70
2024-01-09T09:28:41.073Z,33.60
2024-01-09T09:31:17.508Z,69.20
2024-01-09T09:33:45.849Z,41.83
2024-01-09T09:36:15.694Z,32.22
2024-01-09T09:38:44.152Z,33.00
2024-01-09T09:41:18.044Z,33.72
2024-01-09T09:43:51.624Z,31.25
2024-01-09T09:46:35.055Z,32.72
2024-01-09T09:49:02.075Z,36.97
2024-01-09T09:51:29.526Z,38.13
2024-01-09T09:54:02.160Z,35.10
2024-01-09T09:56:29.121Z,39.70
2024-01-09T09:58:56.099Z,31.83
2024-01-09T10:01:24.050Z,37.50
2024-01-09T10:03:58.052Z,37.38
2024-01-09T10:06:25.481Z,36.08
2024-01-09T10:08:52.585Z,36.58
2024-01-09T10:11:19.407Z,39.80
2024-01-09T10:13:46.455Z,34.50
2024-01-09T10:16:14.033Z,33.20
2024-01-09T10:18:41.389Z,38.50
2024-01-09T10:21:11.878Z,34.03
2024-01-09T10:23:40.767Z,36.35
2024-01-09T10:26:13.879Z,32.67
2024-01-09T10:28:42.608Z,35.28
2024-01-09T10:31:09.949Z,29.92
2024-01-09T10:33:43.270Z,27.60
2024-01-09T10:36:10.511Z,33.30
2024-01-09T10:38:37.799Z,33.53
2024-01-09T10:41:21.552Z,31.88
2024-01-09T10:43:48.939Z,27.08
2024-01-09T10:46:15.766Z,30.88
2024-01-09T10:48:43.326Z,35.63
2024-01-09T10:51:12.149Z,33.85
2024-01-09T10:53:41.882Z,34.55
2024-01-09T10:56:10.012Z,35.13
2024-01-09T10:58:37.166Z,33.75
2024-01-09T11:01:04.319Z,35.33
2024-01-09T11:03:31.258Z,38.47
2024-01-09T11:06:00.747Z,30.45
2024-01-09T11:08:27.898Z,37.42
2024-01-09T11:10:56.244Z,30.23
2024-01-09T11:13:24.210Z,31.17
2024-01-09T11:15:56.295Z,31.08
2024-01-09T11:18:28.591Z,39.90
2024-01-09T11:21:01.858Z,35.92
2024-01-09T11:23:44.386Z,34.58
2024-01-09T11:26:15.224Z,35.45
2024-01-09T11:28:43.956Z,31.38
2024-01-09T11:31:15.021Z,34.35
2024-01-09T11:33:44.008Z,32.60
2024-01-09T11:36:15.904Z,29.73
2024-01-09T11:38:43.345Z,33.85
2024-01-09T11:41:11.130Z,29.25
2024-01-09T11:44:04.002Z,32.17
2024-01-09T11:46:42.837Z,40.72
2024-01-09T11:49:12.810Z,36.80
2024-01-09T11:51:39.739Z,36.55
2024-01-09T11:54:10.589Z,34.42
2024-01-09T11:56:38.388Z,33.20
2024-01-09T11:59:09.144Z,38.28
2024-01-09T12:01:36.262Z,35.92
2024-01-09T12:04:03.864Z,31.70
2024-01-09T12:06:31.128Z,30.67
2024-01-09T12:08:58.465Z,33.47
2024-01-09T12:11:25.513Z,34.08
2024-01-09T12:14:04.413Z,37.20
2024-01-09T12:16:32.537Z,34.47
2024-01-09T12:19:00.082Z,34.15
2024-01-09T12:21:35.135Z,33.05
2024-01-09T12:24:20.289Z,36.20
2024-01-09T12:26:50.925Z,28.67
2024-01-09T12:29:18.030Z,35.40
2024-01-09T12:31:45.337Z,34.33
2024-01-09T12:34:12.561Z,37.25
2024-01-09T12:36:41.179Z,39.22
2024-01-09T12:39:14.228Z,38.55
2024-01-09T12:41:41.575Z,38.17
2024-01-09T12:44:14.499Z,35.28
2024-01-09T12:46:48.770Z,38.65
2024-01-09T12:49:16.059Z,37.63
2024-01-09T12:51:43.236Z,33.20
2024-01-09T12:54:17.477Z,32.35
2024-01-09T12:56:45.486Z,33.72
2024-01-09T12:59:13.415Z,37.95
2024-01-09T13:01:40.752Z,36.17
2024-01-09T13:04:07.587Z,32.65
2024-01-09T13:06:34.720Z,40.50
2024-01-09T13:09:02.053Z,38.20
2024-01-09T13:11:29.022Z,32.03
2024-01-09T13:13:56.336Z,39.80
2024-01-09T13:16:23.516Z,36.53
2024-01-09T13:18:50.476Z,39.60
2024-01-09T13:21:18.668Z,42.83
2024-01-09T13:23:50.223Z,38.22
2024-01-09T13:26:20.183Z,34.33
2024-01-09T13:31:18.885Z,38.72
2024-01-09T13:33:45.710Z,40.55
2024-01-09T13:36:17.816Z,34.40
2024-01-09T13:38:47.156Z,39.55
2024-01-09T13:41:17.524Z,41.75
2024-01-09T13:43:44.511Z,36.13
2024-01-09T13:46:16.197Z,38.22
2024-01-09T13:48:48.205Z,35.45
2024-01-09T13:53:45.252Z,36.45
2024-01-09T13:56:13.572Z,35.72
2024-01-09T13:58:40.837Z,36.25
2024-01-09T14:01:07.834Z,39.20
2024-01-09T14:03:35.046Z,32.80
2024-01-09T14:06:02.163Z,38.00
2024-01-09T14:08:29.232Z,39.45
2024-01-09T14:10:56.386Z,39.78
2024-01-09T14:13:23.188Z,40.05
2024-01-09T14:15:53.279Z,34.47
2024-01-09T14:18:23.206Z,46.13
2024-01-09T14:20:50.042Z,41.28
2024-01-09T14:23:16.905Z,36.50
2024-01-09T14:25:46.679Z,37.17
2024-01-09T14:28:13.815Z,38.65
2024-01-09T14:30:40.729Z,42.90
2024-01-09T14:33:07.698Z,39.30
2024-01-09T14:35:35.080Z,36.25
2024-01-09T14:38:02.162Z,40.17
2024-01-09T14:40:30.299Z,42.63
2024-01-09T14:42:57.667Z,40.63
2024-01-09T14:45:24.463Z,42.63
2024-01-09T14:47:51.332Z,42.90
2024-01-09T14:50:18.244Z,39.53
2024-01-09T14:52:45.554Z,40.67
2024-01-09T14:55:12.453Z,42.53
2024-01-09T14:57:40.637Z,39.63
2024-01-09T15:00:12.592Z,41.22
2024-01-09T15:02:39.608Z,42.97
2024-01-09T15:05:07.313Z,39.63
2024-01-09T15:07:34.334Z,40.50
2024-01-09T15:10:01.420Z,45.25
2024-01-09T15:12:31.362Z,43.55
2024-01-09T15:14:58.588Z,38.08
2024-01-09T15:17:25.570Z,38.30
2024-01-09T15:19:52.911Z,39.03
2024-01-09T15:22:19.825Z,42.03
2024-01-09T15:24:46.632Z,41.75
2024-01-09T15:27:13.643Z,41.92
2024-01-09T15:29:42.497Z,43.13
2024-01-09T15:32:10.085Z,41.03
2024-01-09T15:34:37.326Z,41.80
2024-01-09T15:37:04.426Z,38.90
2024-01-09T15:39:32.191Z,49.40
2024-01-09T15:41:59.517Z,42.45
2024-01-09T15:44:26.359Z,44.08
2024-01-09T15:46:54.947Z,39.65
2024-01-09T15:49:21.910Z,42.90
2024-01-09T15:51:48.916Z,43.58
2024-01-09T15:54:15.841Z,47.08
2024-01-09T15:56:43.503Z,38.67
2024-01-09T15:59:10.727Z,41.03
2024-01-09T16:01:37.709Z,42.83
2024-01-09T16:04:04.722Z,43.45
2024-01-09T16:06:33.933Z,49.95
2024-01-09T16:09:00.933Z,42.22
2024-01-09T16:11:27.784Z,40.25
2024-01-09T16:13:56.134Z,41.00
2024-01-09T16:16:23.200Z,39.63
2024-01-09T16:18:50.346Z,42.58
2024-01-09T16:21:17.217Z,44.60
2024-01-09T16:23:45.259Z,43.72
2024-01-09T16:26:13.037Z,41.88
2024-01-09T16:28:40.029Z,46.72
2024-01-09T16:31:07.220Z,46.97
2024-01-09T16:33:34.722Z,52.00
2024-01-09T16:36:01.789Z,42.97
2024-01-09T16:38:28.569Z,42.65
2024-01-09T16:40:55.500Z,53.60
2024-01-09T16:43:25.626Z,51.53
2024-01-09T16:45:52.547Z,46.20
2024-01-09T16:48:28.795Z,44.22
2024-01-09T16:51:02.488Z,46.90
2024-01-09T16:53:29.794Z,47.92
2024-01-09T16:55:57.219Z,51.33
2024-01-09T16:58:24.186Z,42.72
2024-01-09T17:00:51.282Z,46.25
2024-01-09T17:03:18.185Z,46.13
2024-01-09T17:05:45.362Z,47.28
2024-01-09T17:08:12.719Z,43.67
2024-01-09T17:10:39.631Z,41.47
2024-01-09T17:13:06.674Z,41.08
2024-01-09T17:15:33.530Z,51.22
2024-01-09T17:18:05.213Z,54.13
2024-01-09T17:20:32.339Z,46.13
2024-01-09T17:22:59.499Z,54.05
2024-01-09T17:25:29.902Z,56.33
2024-01-09T17:28:05.593Z,42.88
2024-01-09T17:30:32.806Z,53.53
2024-01-09T17:33:01.023Z,54.20
2024-01-09T17:35:27.856Z,43.33
2024-01-09T17:37:54.733Z,48.30
2024-01-09T17:40:21.640Z,48.58
2024-01-09T17:42:48.647Z,46.13
2024-01-09T17:45:17.969Z,50.08
2024-01-09T17:47:49.129Z,48.92
2024-01-09T17:50:17.104Z,53.85
2024-01-09T17:52:44.327Z,48.97
2024-01-09T17:55:11.101Z,48.40
2024-01-09T17:57:39.140Z,50.83
2024-01-09T18:00:08.131Z,45.33
2024-01-09T18:02:35.959Z,47.53
2024-01-09T18:05:02.818Z,51.80
2024-01-09T18:07:30.401Z,56.42
2024-01-09T18:09:57.224Z,46.88
2024-01-09T18:12:24.055Z,56.10
2024-01-09T18:14:50.811Z,52.80
2024-01-09T18:17:18.127Z,51.75
2024-01-09T18:19:45.011Z,59.75
2024-01-09T18:22:11.884Z,54.97
2024-01-09T18:24:41.895Z,54.63
2024-01-09T18:27:08.868Z,61.13
2024-01-09T18:29:35.846Z,56.75
2024-01-09T18:32:03.401Z,51.85
2024-01-09T18:34:30.702Z,53.25
2024-01-09T18:36:57.975Z,56.72
2024-01-09T18:39:27.863Z,57.88
2024-01-09T18:41:58.930Z,51.22
2024-01-09T18:44:26.978Z,61.50
2024-01-09T18:46:54.118Z,52.83
2024-01-09T18:49:21.592Z,53.92
2024-01-09T18:51:49.547Z,60.83
2024-01-09T18:54:16.943Z,50.90
2024-01-09T18:56:46.868Z,53.03
2024-01-09T18:59:16.406Z,55.78
2024-01-09T19:01:47.605Z,51.17
2024-01-09T19:04:23.524Z,52.42
2024-01-09T19:06:50.517Z,52.78
2024-01-09T19:09:27.468Z,81.55
2024-01-09T19:11:54.338Z,60.92
2024-01-09T19:14:27.332Z,51.20
2024-01-09T19:16:56.180Z,50.35
2024-01-09T19:19:23.112Z,53.22
2024-01-09T19:21:54.867Z,57.25
2024-01-09T19:24:22.671Z,52.30
2024-01-09T19:26:49.655Z,47.55
2024-01-09T19:29:20.437Z,53.05
2024-01-09T19:31:47.651Z,52.92
2024-01-09T19:34:14.820Z,50.25
2024-01-09T19:36:45.961Z,58.50
2024-01-09T19:39:12.896Z,55.55
2024-01-09T19:41:40.048Z,50.92
2024-01-09T19:44:10.084Z,52.40
2024-01-09T19:46:42.352Z,55.90
2024-01-09T19:49:09.822Z,53.67
2024-01-09T19:51:36.901Z,46.95
2024-01-09T19:54:03.892Z,55.28
2024-01-09T19:56:33.643Z,58.55
2024-01-09T19:59:01.160Z,53.17
2024-01-09T20:01:29.768Z,45.67
2024-01-09T20:03:56.949Z,55.08
2024-01-09T20:06:27.340Z,54.65
2024-01-09T20:08:54.893Z,58.50
2024-01-09T20:11:26.914Z,56.95
2024-01-09T20:14:00.663Z,54.72
2024-01-09T20:16:28.458Z,58.03
2024-01-09T20:18:55.521Z,51.70
2024-01-09T20:21:32.425Z,58.30
2024-01-09T20:23:59.686Z,54.85
2024-01-09T20:26:28.049Z,50.38
2024-01-09T20:28:55.524Z,63.05
2024-01-09T20:31:22.637Z,54.30
2024-01-09T20:33:54.827Z,51.25
2024-01-09T20:36:23.150Z,55.63
2024-01-09T20:38:50.038Z,51.30
2024-01-09T20:41:17.077Z,53.60
2024-01-09T20:43:43.994Z,54.78
2024-01-09T20:46:10.810Z,47.75
2024-01-09T20:48:38.107Z,48.38
2024-01-09T20:51:05.642Z,51.75
2024-01-09T20:53:33.180Z,57.15
2024-01-09T20:56:02.667Z,55.30
2024-01-09T20:58:29.721Z,56.40
2024-01-09T21:00:56.786Z,52.72
2024-01-09T21:03:26.767Z,59.08
2024-01-09T21:05:53.828Z,52.08
2024-01-09T21:08:20.828Z,58.38
2024-01-09T21:10:47.738Z,57.72
2024-01-09T21:13:17.623Z,54.08
2024-01-09T21:15:44.944Z,48.40
2024-01-09T21:18:12.947Z,53.00
2024-01-09T21:20:40.443Z,51.75
2024-01-09T21:23:07.523Z,62.58
2024-01-09T21:25:35.132Z,55.05
2024-01-09T21:28:02.148Z,51.45
2024-01-09T21:30:29.322Z,48.30
2024-01-09T21:32:56.285Z,60.17
2024-01-09T21:35:23.221Z,54.40
2024-01-09T21:38:08.788Z,58.80
2024-01-09T21:40:44.365Z,62.83
2024-01-09T21:43:19.583Z,62.85
2024-01-09T21:45:46.352Z,62.45
2024-01-09T21:48:13.692Z,56.83
2024-01-09T21:50:40.611Z,52.88
2024-01-09T21:53:10.247Z,59.15
2024-01-09T21:55:37.099Z,53.80
2024-01-09T21:58:05.072Z,54.60
2024-01-09T22:00:31.878Z,53.05
2024-01-09T22:02:58.692Z,57.55
2024-01-09T22:05:25.544Z,60.83
2024-01-09T22:07:52.389Z,53.20
2024-01-09T22:10:19.225Z,49.20
2024-01-09T22:12:46.284Z,49.95
2024-01-09T22:15:13.270Z,54.17
2024-01-09T22:17:41.185Z,56.58
2024-01-09T22:20:09.453Z,57.00
2024-01-09T22:22:36.304Z,48.33
2024-01-09T22:25:03.494Z,52.80
2024-01-09T22:27:30.465Z,58.22
2024-01-09T22:29:57.471Z,51.20
2024-01-09T22:32:24.404Z,57.17
2024-01-09T22:34:51.402Z,51.55
2024-01-09T22:37:18.118Z,54.80
2024-01-09T22:39:46.560Z,50.75
2024-01-09T22:42:13.353Z,60.20
2024-01-09T22:44:40.450Z,57.00
2024-01-09T22:47:07.397Z,50.03
2024-01-09T22:49:34.229Z,53.13
2024-01-09T22:52:01.074Z,59.28
2024-01-09T22:54:27.863Z,50.03
2024-01-09T22:56:54.671Z,58.33
2024-01-09T22:59:21.778Z,50.15
2024-01-09T23:01:54.705Z,49.20
2024-01-09T23:04:21.827Z,49.58
2024-01-09T23:06:48.730Z,50.72
2024-01-09T23:09:15.854Z,47.45
2024-01-09T23:11:42.622Z,58.97
2024-01-09T23:14:09.639Z,58.35
2024-01-09T23:16:36.546Z,53.22
2024-01-09T23:19:03.536Z,55.78
2024-01-09T23:21:30.499Z,54.65
2024-01-09T23:23:57.463Z,48.47
2024-01-09T23:26:24.302Z,58.00
2024-01-09T23:28:51.178Z,60.67
2024-01-09T23:31:18.453Z,63.33
2024-01-09T23:33:45.595Z,65.53
2024-01-09T23:36:15.442Z,63.35
2024-01-09T23:38:42.233Z,58.22
2024-01-09T23:41:09.388Z,65.43
2024-01-09T23:43:36.506Z,56.90
2024-01-09T23:46:03.385Z,54.67
2024-01-09T23:48:30.339Z,58.78
2024-01-09T23:51:00.996Z,64.97
2024-01-09T23:53:28.014Z,52.65
2024-01-09T23:55:54.846Z,55.55
2024-01-09T23:58:21.972Z,63.13
